Details From PAGS - GUSTAVUS
To PAFE - KAKE
Flight Number -
Tags decoded
Created
Modified
Stats Distance 105 nm / 195 km
Max Altitude 0 ft / 0 m
Waypoints 2
Social Downloads 0
Likes 0
Share VATSIM

Download

Looking for another format? Having issues loading an existing format? Contact us
Advertisement - Login to hide

Notes

Requested: PAGS PAFE

Route

PAGS PAFE

ID Type Via Altitude Latitude Longitude Leg Dist Tot Dist Heading (true) Name
O PAGS APT - 0 ft / 0 m 58.42469˚ -135.70896˚ - 0 nm - GUSTAVUS
O PAFE APT - 0 ft / 0 m 56.96136˚ -133.91026˚ 105 nm 105 nm 146° / 147° KAKE

Altitude Profile

Advertisement - Login to hide

PAGS

Details ICAO PAGS (GST)
Name GUSTAVUS
Region USA (Alaska)
Timezone America/Juneau (UTC-8.0)
Stats Elevation 34 ft / 10 m (AMSL)
Location 58.424690° -135.708964°
Runways 2
Magnetic Variation 18.920° E

METAR

PAGS 271156Z AUTO 13013KT 10SM -RA FEW039 BKN055 OVC120 07/04 A2973 RMK AO2 SLP069 P0000 60000 70027 T00720039 10083 20056 51019

Decode

TAF

PAGS 271124Z 2712/2812 14010KT P6SM -SHRA OVC040 WS020/14035KT FM271600 14013G23KT 6SM -SHRA BR BKN025 OVC040 FM280000 13008KT P6SM -SHRA BKN040 OVC060 AMD LTD TO CLD VIS AND WIND

Decode

Departure Runways

ID Width Length Bearing (true) Bearing (mag) Surface Threshold Offset Overrun Length
02 60 ft / 18 m 3,003 ft / 915 m 40.96° 22.04° Asphalt 0 ft / 0 m 0 ft / 0 m
11 150 ft / 46 m 6,704 ft / 2,044 m 135.06° 116.14° Asphalt 0 ft / 0 m 0 ft / 0 m
20 60 ft / 18 m 3,003 ft / 915 m 220.97° 202.05° Asphalt 0 ft / 0 m 0 ft / 0 m
29 150 ft / 46 m 6,704 ft / 2,044 m 315.08° 296.16° Asphalt 0 ft / 0 m 0 ft / 0 m

PAFE

Details ICAO PAFE (AFE)
Name KAKE
Region USA (Alaska)
Timezone America/Juneau (UTC-8.0)
Stats Elevation 172 ft / 52 m (AMSL)
Location 56.961362° -133.910261°
Runways 1
Magnetic Variation 18.730° E

METAR

PAFE 271156Z AUTO 11007G14KT 10SM -RA BKN020 OVC025 06/05 A2984 RMK AO2 SLP117 P0002 60002 70050 T00610050 10072 20056 53022 $

Decode

TAF

Not found

Destination Runways

ID Width Length Bearing (true) Bearing (mag) Surface Threshold Offset Overrun Length
10 100 ft / 30 m 3,990 ft / 1,216 m 129.93° 111.20° Asphalt 0 ft / 0 m 295 ft / 90 m
28 100 ft / 30 m 3,990 ft / 1,216 m 309.94° 291.21° Asphalt 1,000 ft / 305 m 295 ft / 90 m